Time;durP1;ratioP1;P1;durP2;ratioP2;P2;SDS_P1;SDS_P2;PMS_P1;PMS_P2;Temp;Humidity;BMP_temperature;BMP_pressure;BME280_temperature;BME280_humidity;BME280_pressure;Samples;Min_cycle;Max_cycle;Signal;HPM_P1;HPM_P2
2024/02/11 00:01:26;;;;;;;17.50;13.27;;;12.00;99.90;;;;;;5074954;28;20220;-57
2024/02/11 00:03:54;;;;;;;15.87;12.30;;;11.90;99.90;;;;;;5074941;28;20208;-57
2024/02/11 00:06:21;;;;;;;16.03;11.63;;;12.00;99.90;;;;;;5074897;28;20560;-56
2024/02/11 00:08:49;;;;;;;17.07;13.00;;;12.00;99.90;;;;;;5074388;28;20771;-58
2024/02/11 00:11:17;;;;;;;18.57;12.00;;;11.90;99.90;;;;;;5074796;28;20209;-58
2024/02/11 00:13:45;;;;;;;15.97;12.60;;;11.70;99.90;;;;;;5074759;28;20205;-58
2024/02/11 00:16:13;;;;;;;14.50;12.97;;;11.50;99.90;;;;;;5074726;28;20209;-58
2024/02/11 00:18:41;;;;;;;16.43;12.37;;;11.30;99.90;;;;;;5074247;28;20707;-58
2024/02/11 00:21:08;;;;;;;16.07;12.93;;;11.30;99.90;;;;;;5074476;28;20312;-58
2024/02/11 00:23:36;;;;;;;18.77;13.33;;;11.40;99.90;;;;;;5074390;28;20209;-58
2024/02/11 00:26:02;;;;;;;14.03;12.30;;;11.60;99.90;;;;;;5074647;28;20228;-58
2024/02/11 00:28:30;;;;;;;16.37;13.80;;;11.80;99.90;;;;;;5074284;28;20229;-58
2024/02/11 00:30:57;;;;;;;20.23;13.43;;;11.90;99.90;;;;;;5074472;28;20201;-57
2024/02/11 00:33:24;;;;;;;19.33;14.10;;;11.70;99.90;;;;;;5074272;28;20278;-57
2024/02/11 00:35:52;;;;;;;18.37;13.57;;;11.60;99.90;;;;;;5074346;28;20292;-58
2024/02/11 00:38:19;;;;;;;14.90;12.60;;;11.50;99.90;;;;;;5074017;28;20291;-57
2024/02/11 00:40:46;;;;;;;17.20;13.77;;;11.60;99.90;;;;;;5073987;28;20740;-56
2024/02/11 00:43:12;;;;;;;17.93;14.43;;;11.60;99.90;;;;;;5074232;28;20214;-58
2024/02/11 00:45:40;;;;;;;18.63;13.63;;;11.60;99.90;;;;;;5074243;28;20212;-57
2024/02/11 00:48:08;;;;;;;18.03;13.83;;;11.70;99.90;;;;;;5073850;28;20667;-57
2024/02/11 00:50:35;;;;;;;17.50;14.10;;;11.80;99.90;;;;;;5073518;28;20555;-59
2024/02/11 00:53:04;;;;;;;17.07;13.17;;;12.00;99.90;;;;;;5074042;28;20681;-56
2024/02/11 00:55:33;;;;;;;17.70;14.07;;;12.10;99.90;;;;;;5073956;28;20292;-57
2024/02/11 00:58:00;;;;;;;15.70;13.83;;;12.20;99.90;;;;;;5072804;28;20204;-57
2024/02/11 01:00:27;;;;;;;17.13;14.43;;;12.30;99.90;;;;;;5073479;28;20282;-58
2024/02/11 01:02:55;;;;;;;18.57;14.20;;;12.40;99.90;;;;;;5073728;28;20208;-58
2024/02/11 01:05:22;;;;;;;17.30;14.33;;;12.50;99.90;;;;;;5073585;28;20235;-57
2024/02/11 01:07:50;;;;;;;17.53;13.57;;;12.50;99.90;;;;;;5073864;28;20296;-58
2024/02/11 01:10:17;;;;;;;16.47;14.10;;;12.50;99.90;;;;;;5073489;28;20228;-57
2024/02/11 01:12:45;;;;;;;19.10;14.57;;;12.50;99.90;;;;;;5073643;28;20631;-57
2024/02/11 01:15:16;;;;;;;15.93;13.37;;;12.60;99.90;;;;;;5073628;28;20201;-57
2024/02/11 01:17:44;;;;;;;14.03;12.53;;;12.60;99.90;;;;;;5073675;28;20220;-58
2024/02/11 01:20:14;;;;;;;17.23;13.57;;;12.70;99.90;;;;;;5073345;28;20226;-57
2024/02/11 01:22:45;;;;;;;15.27;12.80;;;12.70;99.90;;;;;;5073564;28;20225;-63
2024/02/11 01:25:18;;;;;;;17.63;12.77;;;12.70;99.90;;;;;;5073581;28;20761;-56
2024/02/11 01:27:45;;;;;;;16.40;13.40;;;12.70;99.90;;;;;;5073256;28;20209;-58
2024/02/11 01:30:13;;;;;;;16.83;12.80;;;12.60;99.90;;;;;;5072826;28;20221;-57
2024/02/11 01:32:40;;;;;;;15.07;12.63;;;12.50;99.90;;;;;;5073366;28;20208;-56
2024/02/11 01:35:07;;;;;;;14.80;11.63;;;12.60;99.90;;;;;;5073158;28;20220;-57
2024/02/11 01:37:40;;;;;;;16.57;13.17;;;12.60;99.90;;;;;;5073357;28;20295;-57
2024/02/11 01:40:09;;;;;;;16.73;13.00;;;12.60;99.90;;;;;;5072750;28;20729;-58
2024/02/11 01:42:37;;;;;;;15.47;12.40;;;12.50;99.90;;;;;;5072970;28;20319;-57
2024/02/11 01:45:04;;;;;;;19.20;13.80;;;12.50;99.90;;;;;;5073062;28;20748;-57
2024/02/11 01:47:30;;;;;;;19.13;13.37;;;12.50;99.90;;;;;;5072978;28;20675;-57
2024/02/11 01:49:58;;;;;;;17.40;12.57;;;12.60;99.90;;;;;;5072629;28;20597;-57
2024/02/11 01:52:28;;;;;;;15.27;12.20;;;12.60;99.90;;;;;;5072982;28;20203;-57
2024/02/11 01:54:56;;;;;;;13.70;11.90;;;12.60;99.90;;;;;;5073184;28;20200;-58
2024/02/11 01:57:22;;;;;;;15.37;12.67;;;12.60;99.90;;;;;;5072700;28;20560;-58
2024/02/11 01:59:49;;;;;;;13.97;12.43;;;12.50;99.90;;;;;;5072549;28;20228;-57
2024/02/11 02:02:20;;;;;;;15.73;11.50;;;12.40;99.90;;;;;;5072704;28;20235;-58
2024/02/11 02:04:48;;;;;;;12.83;11.40;;;12.40;99.90;;;;;;5072599;28;20205;-57
2024/02/11 02:07:16;;;;;;;14.87;11.50;;;12.30;99.90;;;;;;5072579;28;20269;-58
2024/02/11 02:09:42;;;;;;;13.67;11.53;;;12.30;99.90;;;;;;5072090;28;20229;-58
2024/02/11 02:12:14;;;;;;;14.20;10.77;;;12.30;99.90;;;;;;5072565;28;20205;-57
2024/02/11 02:14:41;;;;;;;12.27;10.47;;;12.30;99.90;;;;;;5072792;28;20295;-57
2024/02/11 02:17:08;;;;;;;13.80;10.53;;;12.30;99.90;;;;;;5072447;28;20281;-57
2024/02/11 02:19:34;;;;;;;13.70;10.90;;;12.30;99.90;;;;;;5072062;28;20276;-58
2024/02/11 02:22:03;;;;;;;12.63;10.60;;;12.30;99.90;;;;;;5072312;28;20641;-57
2024/02/11 02:24:29;;;;;;;12.63;10.90;;;12.30;99.90;;;;;;5072256;28;20282;-57
2024/02/11 02:26:56;;;;;;;13.10;10.40;;;12.30;99.90;;;;;;5072513;28;20630;-57
2024/02/11 02:29:22;;;;;;;12.07;10.47;;;12.30;99.90;;;;;;5071794;28;20729;-57
2024/02/11 02:31:49;;;;;;;15.20;11.37;;;12.30;99.90;;;;;;5072512;28;20251;-56
2024/02/11 02:34:16;;;;;;;13.10;10.07;;;12.30;99.90;;;;;;5072299;28;20200;-57
2024/02/11 02:36:43;;;;;;;13.33;10.37;;;12.30;99.90;;;;;;5072118;28;20216;-58
2024/02/11 02:39:13;;;;;;;12.37;10.00;;;12.30;99.90;;;;;;5071762;28;20224;-57
2024/02/11 02:41:40;;;;;;;12.47;10.13;;;12.20;99.90;;;;;;5072400;28;20287;-57
2024/02/11 02:44:07;;;;;;;13.13;10.20;;;12.20;99.90;;;;;;5072191;28;20215;-58
2024/02/11 02:46:33;;;;;;;11.03;9.83;;;12.10;99.90;;;;;;5072062;28;20204;-57
2024/02/11 02:49:00;;;;;;;12.00;10.23;;;12.00;99.90;;;;;;5071346;28;20736;-57
2024/02/11 02:51:27;;;;;;;11.77;9.63;;;12.00;99.90;;;;;;5072127;28;20208;-58
2024/02/11 02:53:54;;;;;;;10.93;9.67;;;12.00;99.90;;;;;;5071785;28;20263;-57
2024/02/11 02:56:26;;;;;;;12.83;9.83;;;12.00;99.90;;;;;;5072257;28;20213;-57
2024/02/11 02:58:53;;;;;;;11.47;10.07;;;12.10;99.90;;;;;;5071627;28;20256;-57
2024/02/11 03:01:22;;;;;;;11.60;10.23;;;12.10;99.90;;;;;;5071665;28;20701;-57
2024/02/11 03:03:50;;;;;;;12.70;10.53;;;12.10;99.90;;;;;;5071735;28;20201;-58
2024/02/11 03:06:16;;;;;;;12.47;10.07;;;12.10;99.90;;;;;;5071974;28;20221;-57
2024/02/11 03:08:43;;;;;;;11.30;9.97;;;12.20;99.90;;;;;;5071307;28;20611;-59
2024/02/11 03:11:10;;;;;;;12.00;10.53;;;12.20;99.90;;;;;;5071839;28;20201;-57
2024/02/11 03:13:37;;;;;;;11.67;9.60;;;12.20;99.90;;;;;;5071771;28;20219;-57
2024/02/11 03:16:05;;;;;;;11.37;10.10;;;12.30;99.90;;;;;;5071810;28;20245;-56
2024/02/11 03:18:31;;;;;;;12.13;10.50;;;12.10;99.90;;;;;;5071248;28;20232;-57
2024/02/11 03:20:58;;;;;;;11.57;10.37;;;12.30;99.90;;;;;;5074680;28;20619;-57
2024/02/11 03:23:25;;;;;;;10.53;9.10;;;12.20;99.90;;;;;;5075925;28;20314;-57
2024/02/11 03:25:52;;;;;;;7.80;6.23;;;12.20;99.90;;;;;;5075809;28;20213;-58
2024/02/11 03:28:18;;;;;;;5.40;4.43;;;11.90;99.90;;;;;;5075781;28;20213;-57
2024/02/11 03:30:46;;;;;;;3.10;2.80;;;11.60;99.90;;;;;;5075487;28;20675;-56
2024/02/11 03:33:13;;;;;;;2.20;2.00;;;11.40;99.90;;;;;;5075477;28;20254;-57
2024/02/11 03:35:40;;;;;;;1.43;1.20;;;11.30;99.90;;;;;;5075647;28;20228;-58
2024/02/11 03:38:07;;;;;;;0.90;0.70;;;11.00;99.90;;;;;;5075624;28;20211;-58
2024/02/11 03:40:34;;;;;;;0.77;0.33;;;10.90;99.90;;;;;;5075495;28;20204;-57
2024/02/11 03:43:01;;;;;;;0.50;0.40;;;10.60;99.90;;;;;;5075547;28;20251;-57
2024/02/11 03:45:27;;;;;;;0.30;0.20;;;10.50;99.90;;;;;;5075403;28;20614;-57
2024/02/11 03:47:55;;;;;;;1.90;0.20;;;10.40;99.90;;;;;;5075081;28;20679;-58
2024/02/11 03:50:24;;;;;;;0.80;0.40;;;10.40;99.90;;;;;;5082403;22;20226;-62
2024/02/11 03:52:50;;;;;;;1.23;0.20;;;10.40;99.90;;;;;;5055162;28;20206;-62
2024/02/11 03:55:17;;;;;;;0.10;0.10;;;10.40;99.90;;;;;;5055134;28;20229;-62
2024/02/11 03:57:44;;;;;;;0.00;0.00;;;10.40;99.90;;;;;;5054944;28;20682;-62
2024/02/11 04:00:15;;;;;;;0.63;0.30;;;10.40;99.90;;;;;;5046419;28;20638;-63
2024/02/11 04:02:43;;;;;;;0.20;0.13;;;10.50;99.90;;;;;;5054888;28;20280;-62
2024/02/11 04:05:12;;;;;;;0.20;0.20;;;10.40;99.90;;;;;;5046793;28;20198;-64
2024/02/11 04:07:45;;;;;;;0.33;0.20;;;10.40;99.90;;;;;;5054944;28;20231;-62
2024/02/11 04:10:18;;;;;;;0.10;0.10;;;10.40;99.90;;;;;;5046427;28;20226;-62
2024/02/11 04:12:44;;;;;;;0.10;0.10;;;10.40;99.90;;;;;;5054817;28;20289;-62
2024/02/11 04:15:11;;;;;;;0.27;0.10;;;10.30;99.90;;;;;;5046851;28;20213;-62
2024/02/11 04:17:40;;;;;;;0.10;0.10;;;10.40;99.90;;;;;;5054665;28;20202;-62
2024/02/11 04:20:15;;;;;;;0.40;0.10;;;10.40;99.90;;;;;;5054196;28;20227;-62
2024/02/11 04:22:45;;;;;;;0.20;0.20;;;10.40;99.90;;;;;;5054553;28;20221;-62
2024/02/11 04:25:14;;;;;;;0.47;0.30;;;10.40;99.90;;;;;;5046318;28;20628;-62
2024/02/11 04:27:41;;;;;;;0.50;0.10;;;10.40;99.90;;;;;;5054765;28;20267;-62
2024/02/11 04:30:12;;;;;;;0.20;0.10;;;10.40;99.90;;;;;;5054002;28;20222;-62
2024/02/11 04:32:41;;;;;;;0.10;0.10;;;10.30;99.90;;;;;;5054168;28;20204;-62
2024/02/11 04:35:11;;;;;;;0.97;0.10;;;10.30;99.90;;;;;;5054201;28;20229;-62
2024/02/11 04:37:38;;;;;;;0.20;0.10;;;10.40;99.90;;;;;;5054154;28;20241;-62
2024/02/11 04:40:10;;;;;;;1.10;0.13;;;10.30;99.90;;;;;;5054020;28;20229;-61
2024/02/11 04:42:41;;;;;;;0.30;0.20;;;10.30;99.90;;;;;;5054049;28;20804;-61
2024/02/11 04:45:07;;;;;;;0.30;0.30;;;10.30;99.90;;;;;;5054123;28;20649;-62
2024/02/11 04:47:35;;;;;;;0.40;0.40;;;10.30;99.90;;;;;;5054117;28;20607;-61
2024/02/11 04:50:03;;;;;;;0.67;0.40;;;10.30;99.90;;;;;;5053413;28;20733;-62
2024/02/11 04:52:32;;;;;;;0.20;0.20;;;10.30;99.90;;;;;;5053771;28;20216;-62
2024/02/11 04:54:58;;;;;;;0.80;0.40;;;10.30;99.90;;;;;;5053769;28;20744;-62
2024/02/11 04:57:26;;;;;;;0.50;0.50;;;10.30;99.90;;;;;;5054001;28;20209;-62
2024/02/11 04:59:53;;;;;;;0.90;0.50;;;10.30;99.90;;;;;;5053345;28;20644;-62
2024/02/11 05:02:20;;;;;;;0.60;0.50;;;10.30;99.90;;;;;;5053998;28;20703;-62
2024/02/11 05:04:47;;;;;;;1.07;0.40;;;10.30;99.90;;;;;;5053438;28;20214;-62
2024/02/11 05:07:14;;;;;;;0.67;0.50;;;10.30;99.90;;;;;;5053569;28;20624;-61
2024/02/11 05:09:45;;;;;;;0.47;0.40;;;10.30;99.90;;;;;;5053289;28;20236;-62
2024/02/11 05:12:12;;;;;;;0.40;0.40;;;10.30;99.90;;;;;;5053776;28;20613;-61
2024/02/11 05:14:43;;;;;;;0.87;0.50;;;10.30;99.90;;;;;;5053550;28;20392;-62
2024/02/11 05:17:10;;;;;;;1.43;0.60;;;10.20;99.90;;;;;;5053249;28;20582;-61
2024/02/11 05:19:36;;;;;;;0.93;0.60;;;10.20;99.90;;;;;;5053055;28;20225;-61
2024/02/11 05:22:04;;;;;;;0.47;0.40;;;10.20;99.90;;;;;;5053266;28;20230;-62
2024/02/11 05:24:31;;;;;;;0.70;0.70;;;10.20;99.90;;;;;;5053278;28;20213;-61
2024/02/11 05:26:58;;;;;;;1.67;0.70;;;10.10;99.90;;;;;;5053266;28;20205;-62
2024/02/11 05:29:24;;;;;;;0.50;0.40;;;10.20;99.90;;;;;;5052977;28;20618;-62
2024/02/11 05:31:53;;;;;;;0.97;0.60;;;10.20;99.90;;;;;;5052854;28;20231;-62
2024/02/11 05:34:19;;;;;;;1.00;0.80;;;10.20;99.90;;;;;;5053416;28;20482;-62
2024/02/11 05:36:46;;;;;;;0.50;0.50;;;10.30;99.90;;;;;;5053326;28;20206;-61
2024/02/11 05:39:13;;;;;;;0.80;0.60;;;10.20;99.90;;;;;;5044665;28;20312;-62
2024/02/11 05:41:41;;;;;;;0.50;0.50;;;10.20;99.90;;;;;;5053058;28;20212;-61
2024/02/11 05:44:09;;;;;;;2.33;0.47;;;10.20;99.90;;;;;;5052061;28;20722;-61
2024/02/11 05:46:35;;;;;;;0.77;0.40;;;10.20;99.90;;;;;;5052883;28;20288;-62
2024/02/11 05:49:05;;;;;;;0.37;0.37;;;10.20;99.90;;;;;;5052518;28;20229;-62
2024/02/11 05:51:32;;;;;;;0.10;0.10;;;10.20;99.90;;;;;;5052786;28;20745;-62
2024/02/11 05:53:59;;;;;;;0.40;0.20;;;10.10;99.90;;;;;;5052865;28;20292;-62
2024/02/11 05:56:25;;;;;;;1.20;0.30;;;10.10;99.90;;;;;;5052804;28;20643;-62
2024/02/11 05:58:52;;;;;;;1.37;0.23;;;10.10;99.90;;;;;;5052205;28;20714;-62
2024/02/11 06:01:19;;;;;;;0.87;0.30;;;10.10;99.90;;;;;;5053942;28;20229;-62
2024/02/11 06:03:46;;;;;;;0.50;0.20;;;10.10;99.90;;;;;;5056444;28;20217;-62
2024/02/11 06:06:15;;;;;;;0.30;0.20;;;10.10;99.90;;;;;;5056434;28;20206;-62
2024/02/11 06:08:42;;;;;;;0.80;0.60;;;10.10;99.90;;;;;;5053081;28;20312;-62
2024/02/11 06:11:11;;;;;;;1.60;0.90;;;10.10;99.90;;;;;;5052359;28;20217;-62
2024/02/11 06:13:39;;;;;;;1.67;1.00;;;10.10;99.90;;;;;;5052138;28;20208;-62
2024/02/11 06:16:07;;;;;;;1.37;0.90;;;9.90;99.90;;;;;;5052404;28;20213;-62
2024/02/11 06:18:34;;;;;;;2.00;1.07;;;9.90;99.90;;;;;;5052139;28;20241;-61
2024/02/11 06:21:00;;;;;;;0.70;0.60;;;10.00;99.90;;;;;;5052173;28;20770;-62
2024/02/11 06:23:28;;;;;;;1.50;0.60;;;10.00;99.90;;;;;;5052118;28;20225;-64
2024/02/11 06:26:02;;;;;;;2.53;0.93;;;10.00;99.90;;;;;;5052064;28;20213;-62
2024/02/11 06:28:29;;;;;;;3.87;2.03;;;10.00;99.90;;;;;;5052049;28;20212;-64
2024/02/11 06:30:56;;;;;;;2.00;1.30;;;9.90;99.90;;;;;;5052195;28;20206;-64
2024/02/11 06:33:22;;;;;;;0.93;0.63;;;9.80;99.90;;;;;;5052218;28;20216;-64
2024/02/11 06:35:50;;;;;;;1.27;0.63;;;9.80;99.90;;;;;;5052033;28;20276;-64
2024/02/11 06:38:16;;;;;;;1.60;0.93;;;9.80;99.90;;;;;;5052126;28;20225;-63
2024/02/11 06:40:45;;;;;;;1.40;0.80;;;9.80;99.90;;;;;;5051544;28;20647;-62
2024/02/11 06:43:12;;;;;;;1.70;1.30;;;9.80;99.90;;;;;;5052098;28;20218;-62
2024/02/11 06:45:40;;;;;;;1.70;1.10;;;9.70;99.90;;;;;;5052198;28;20198;-64
2024/02/11 06:48:08;;;;;;;1.93;0.90;;;9.70;99.90;;;;;;5051834;28;20352;-62
2024/02/11 06:50:34;;;;;;;1.83;1.40;;;9.60;99.90;;;;;;5050704;28;20222;-64
2024/02/11 06:53:01;;;;;;;1.10;0.70;;;9.70;99.90;;;;;;5050931;28;20293;-63
2024/02/11 06:55:28;;;;;;;1.43;1.00;;;9.70;99.90;;;;;;5050820;28;20292;-63
2024/02/11 06:57:56;;;;;;;2.40;1.37;;;9.60;99.90;;;;;;5051189;28;20205;-63
2024/02/11 07:00:24;;;;;;;1.00;0.90;;;9.70;99.90;;;;;;5050707;28;20245;-63
2024/02/11 07:02:54;;;;;;;1.60;1.10;;;9.70;99.90;;;;;;5050721;28;20312;-63
2024/02/11 07:05:21;;;;;;;2.93;1.20;;;9.60;99.90;;;;;;5050830;28;20263;-63
2024/02/11 07:07:48;;;;;;;1.37;1.00;;;9.60;99.90;;;;;;5050717;28;20632;-64
2024/02/11 07:10:15;;;;;;;1.83;0.80;;;9.60;99.90;;;;;;5050647;28;20225;-64
2024/02/11 07:12:44;;;;;;;1.80;1.50;;;9.60;99.90;;;;;;5050678;28;20251;-63
2024/02/11 07:15:13;;;;;;;0.80;0.70;;;9.70;99.90;;;;;;5050557;28;20675;-63
2024/02/11 07:17:42;;;;;;;3.07;2.10;;;9.70;99.90;;;;;;5050708;28;20197;-63
2024/02/11 07:20:11;;;;;;;1.10;1.00;;;9.70;99.90;;;;;;5050153;28;20229;-63
2024/02/11 07:22:40;;;;;;;2.50;1.50;;;9.70;99.90;;;;;;5050415;28;20312;-63
2024/02/11 07:25:08;;;;;;;1.70;1.20;;;9.70;99.90;;;;;;5050288;28;20620;-63
2024/02/11 07:27:35;;;;;;;0.80;0.80;;;9.60;99.90;;;;;;5050702;28;20208;-62
2024/02/11 07:30:01;;;;;;;1.13;0.70;;;9.80;99.90;;;;;;5050114;28;20229;-62
2024/02/11 07:32:31;;;;;;;1.10;0.90;;;9.90;99.90;;;;;;5050400;28;20225;-62
2024/02/11 07:34:58;;;;;;;1.13;1.00;;;9.70;99.90;;;;;;5050378;28;20205;-62
2024/02/11 07:37:25;;;;;;;2.13;1.30;;;9.80;99.90;;;;;;5050625;28;20202;-62
2024/02/11 07:39:51;;;;;;;1.40;1.10;;;9.80;99.90;;;;;;5050231;28;20233;-62
2024/02/11 07:42:18;;;;;;;1.47;1.00;;;9.80;99.90;;;;;;5050420;28;20201;-64
2024/02/11 07:44:45;;;;;;;3.20;1.53;;;9.70;99.90;;;;;;5050621;28;20578;-62
2024/02/11 07:47:12;;;;;;;1.50;1.10;;;9.70;99.90;;;;;;5050388;28;20209;-62
2024/02/11 07:49:40;;;;;;;1.20;0.90;;;9.70;99.90;;;;;;5012857;28;1074863;-62
2024/02/11 07:52:07;;;;;;;3.60;1.30;;;9.80;99.90;;;;;;5051125;28;20201;-62
2024/02/11 07:54:34;;;;;;;2.73;1.20;;;9.80;99.90;;;;;;5051211;28;20232;-62
2024/02/11 07:57:01;;;;;;;2.43;1.00;;;9.80;99.90;;;;;;5051163;28;20293;-62
2024/02/11 07:59:27;;;;;;;1.27;1.00;;;9.70;99.90;;;;;;5050961;28;20313;-62
2024/02/11 08:01:55;;;;;;;2.97;2.00;;;9.70;99.90;;;;;;5050762;28;20263;-62
2024/02/11 08:04:21;;;;;;;1.80;1.17;;;9.70;99.90;;;;;;5051247;28;20217;-62
2024/02/11 08:06:49;;;;;;;4.07;2.10;;;9.80;99.90;;;;;;5053232;28;20252;-62
2024/02/11 08:09:16;;;;;;;1.63;1.33;;;9.80;99.90;;;;;;5054463;28;20582;-63
2024/02/11 08:11:44;;;;;;;3.20;1.77;;;9.90;99.90;;;;;;5054677;28;20276;-59
2024/02/11 08:14:10;;;;;;;4.47;1.90;;;10.00;99.90;;;;;;5054594;28;20197;-59
2024/02/11 08:16:37;;;;;;;2.93;1.90;;;10.20;99.90;;;;;;5054617;28;20732;-59
2024/02/11 08:19:04;;;;;;;5.77;3.53;;;10.20;99.90;;;;;;5054591;28;20232;-59
2024/02/11 08:21:30;;;;;;;2.57;1.60;;;10.30;99.90;;;;;;5054603;28;20201;-59
2024/02/11 08:23:58;;;;;;;1.90;1.70;;;10.40;99.90;;;;;;5054272;28;20228;-59
2024/02/11 08:26:25;;;;;;;4.00;2.20;;;10.60;99.90;;;;;;5054492;28;20197;-59
2024/02/11 08:28:52;;;;;;;2.53;1.80;;;10.70;99.90;;;;;;5054095;28;20275;-59
2024/02/11 08:31:19;;;;;;;2.47;2.00;;;10.70;99.90;;;;;;5046174;28;20201;-59
2024/02/11 08:33:46;;;;;;;3.23;1.90;;;10.80;99.90;;;;;;5054504;28;20271;-59
2024/02/11 08:36:13;;;;;;;2.77;2.27;;;10.90;99.90;;;;;;5054355;28;20301;-60
2024/02/11 08:38:40;;;;;;;3.13;1.90;;;10.90;99.90;;;;;;5053941;28;20612;-60
2024/02/11 08:41:09;;;;;;;2.20;1.97;;;11.10;99.90;;;;;;5054067;28;20676;-60
2024/02/11 08:43:36;;;;;;;2.63;2.07;;;11.20;99.90;;;;;;5054290;28;20253;-60
2024/02/11 08:46:04;;;;;;;2.50;1.90;;;11.30;99.90;;;;;;5054562;28;20283;-60
2024/02/11 08:48:32;;;;;;;3.43;2.40;;;11.50;99.90;;;;;;5054181;28;20198;-61
2024/02/11 08:51:00;;;;;;;7.43;4.80;;;11.60;99.90;;;;;;5054623;28;20388;-60
2024/02/11 08:53:27;;;;;;;3.47;2.43;;;11.70;99.90;;;;;;5054311;28;20202;-59
2024/02/11 08:55:55;;;;;;;3.00;2.43;;;11.80;99.90;;;;;;5054139;28;20644;-60
2024/02/11 08:58:23;;;;;;;2.57;2.10;;;11.90;99.90;;;;;;5054143;28;20666;-60
2024/02/11 09:00:50;;;;;;;3.27;2.43;;;11.90;99.90;;;;;;5054144;28;20807;-60
2024/02/11 09:03:17;;;;;;;3.97;2.87;;;12.00;99.90;;;;;;5054016;28;20604;-59
2024/02/11 09:05:44;;;;;;;3.83;2.87;;;12.10;99.90;;;;;;5053932;28;20268;-59
2024/02/11 09:08:11;;;;;;;5.17;2.60;;;12.00;99.90;;;;;;5053628;28;20216;-59
2024/02/11 09:10:38;;;;;;;4.90;2.90;;;12.00;99.90;;;;;;5053180;28;20232;-59
2024/02/11 09:13:06;;;;;;;4.13;2.70;;;12.00;99.90;;;;;;5053541;28;20671;-59
2024/02/11 09:15:34;;;;;;;3.60;2.43;;;12.00;99.90;;;;;;5053723;28;20279;-59
2024/02/11 09:18:01;;;;;;;6.50;3.27;;;12.10;99.90;;;;;;5052345;28;20209;-59
2024/02/11 09:20:27;;;;;;;5.57;4.07;;;12.00;99.90;;;;;;5053121;28;20218;-59
2024/02/11 09:22:54;;;;;;;4.30;2.57;;;12.00;99.90;;;;;;5053417;28;20267;-59
2024/02/11 09:25:21;;;;;;;9.60;5.87;;;12.10;99.90;;;;;;5053372;28;20194;-59
2024/02/11 09:27:47;;;;;;;5.37;3.10;;;12.10;99.90;;;;;;5053476;28;20702;-59
2024/02/11 09:30:16;;;;;;;5.23;2.67;;;12.20;99.90;;;;;;5053019;28;22713;-59
2024/02/11 09:32:46;;;;;;;3.27;2.70;;;12.20;99.90;;;;;;5053233;28;20210;-59
2024/02/11 09:35:13;;;;;;;3.80;2.63;;;12.30;99.90;;;;;;5053143;28;20244;-59
2024/02/11 09:37:42;;;;;;;5.10;2.43;;;12.40;99.90;;;;;;5053273;28;20288;-59
2024/02/11 09:40:10;;;;;;;4.17;2.43;;;12.70;99.90;;;;;;5052748;28;20283;-59
2024/02/11 09:42:37;;;;;;;4.60;2.40;;;12.90;99.90;;;;;;5053214;28;20202;-59
2024/02/11 09:45:05;;;;;;;4.60;2.40;;;13.00;99.90;;;;;;5052922;28;20283;-59
2024/02/11 09:47:33;;;;;;;7.00;2.70;;;13.10;99.90;;;;;;5053203;28;20205;-59
2024/02/11 09:50:04;;;;;;;3.07;2.17;;;13.20;99.90;;;;;;5052608;28;20316;-59
2024/02/11 09:52:31;;;;;;;3.87;2.10;;;13.30;99.90;;;;;;5052715;28;20703;-59
2024/02/11 09:54:58;;;;;;;3.07;2.07;;;13.30;99.90;;;;;;5052840;28;20206;-60
2024/02/11 09:57:25;;;;;;;5.87;2.87;;;13.20;99.90;;;;;;5052838;28;20216;-59
2024/02/11 09:59:51;;;;;;;5.57;3.30;;;13.10;99.90;;;;;;5052399;28;20309;-59
2024/02/11 10:02:19;;;;;;;20.83;18.07;;;13.00;99.90;;;;;;5052527;28;20210;-60
2024/02/11 10:04:46;;;;;;;4.90;2.50;;;12.90;99.90;;;;;;5052427;28;20226;-59
2024/02/11 10:07:23;;;;;;;3.20;2.50;;;12.80;99.90;;;;;;5052612;28;20216;-59
2024/02/11 10:09:51;;;;;;;3.90;2.53;;;12.80;99.90;;;;;;5052568;28;20307;-59
2024/02/11 10:12:19;;;;;;;4.47;2.50;;;13.00;99.90;;;;;;5052592;28;20288;-60
2024/02/11 10:14:57;;;;;;;4.33;2.40;;;13.00;99.90;;;;;;5052441;28;20205;-59
2024/02/11 10:17:24;;;;;;;5.10;3.70;;;13.10;99.90;;;;;;5044447;28;20220;-59
2024/02/11 10:19:52;;;;;;;7.77;5.70;;;13.10;99.90;;;;;;5052198;28;20241;-59
2024/02/11 10:22:21;;;;;;;12.90;8.83;;;13.20;99.90;;;;;;5052553;28;20212;-59
2024/02/11 10:24:49;;;;;;;7.97;5.83;;;13.30;99.90;;;;;;5052385;28;20695;-60
2024/02/11 10:27:17;;;;;;;5.77;4.87;;;13.20;99.90;;;;;;5052171;28;20209;-60
2024/02/11 10:29:44;;;;;;;3.77;2.43;;;13.20;99.90;;;;;;5051565;28;20236;-60
2024/02/11 10:32:13;;;;;;;3.40;2.40;;;13.10;99.90;;;;;;5052153;28;20240;-60
2024/02/11 10:34:42;;;;;;;3.90;2.23;;;13.20;99.90;;;;;;5052049;28;20682;-60
2024/02/11 10:37:10;;;;;;;2.40;2.20;;;13.40;99.90;;;;;;5052269;28;20293;-60
2024/02/11 10:39:39;;;;;;;4.20;2.43;;;13.50;99.90;;;;;;5051730;28;20312;-60
2024/02/11 10:42:08;;;;;;;4.03;2.63;;;13.50;99.90;;;;;;5051852;28;20654;-60
2024/02/11 10:44:36;;;;;;;4.07;2.30;;;13.60;99.90;;;;;;5051839;28;20222;-60
2024/02/11 10:47:04;;;;;;;3.97;2.20;;;13.80;99.90;;;;;;5052045;28;20209;-60
2024/02/11 10:49:31;;;;;;;9.53;2.50;;;13.90;99.90;;;;;;5051671;28;20306;-59
2024/02/11 10:52:03;;;;;;;4.97;2.60;;;14.00;99.90;;;;;;5051741;28;20212;-59
2024/02/11 10:54:39;;;;;;;3.00;2.67;;;14.00;99.90;;;;;;5051911;28;20221;-60
2024/02/11 10:57:19;;;;;;;3.30;2.73;;;13.80;99.90;;;;;;5051561;28;20255;-59
2024/02/11 10:59:53;;;;;;;14.03;12.40;;;13.80;99.90;;;;;;5051532;28;20236;-60
2024/02/11 11:02:20;;;;;;;3.73;2.70;;;13.60;99.90;;;;;;5051633;28;20241;-59
2024/02/11 11:04:48;;;;;;;3.80;2.30;;;13.50;99.90;;;;;;5051613;28;20232;-59
2024/02/11 11:07:17;;;;;;;3.50;2.50;;;13.40;99.90;;;;;;5051517;28;20232;-59
2024/02/11 11:09:45;;;;;;;4.87;2.83;;;13.40;99.90;;;;;;5051324;28;20690;-59
2024/02/11 11:12:16;;;;;;;5.43;3.50;;;13.40;99.90;;;;;;5051523;28;20214;-59
2024/02/11 11:14:43;;;;;;;4.67;2.50;;;13.50;99.90;;;;;;5051736;28;20624;-59
2024/02/11 11:17:17;;;;;;;9.17;3.67;;;13.50;99.90;;;;;;5051488;28;20209;-59
2024/02/11 11:19:48;;;;;;;3.60;2.40;;;13.50;99.90;;;;;;5051184;28;20311;-59
2024/02/11 11:22:15;;;;;;;3.33;2.33;;;13.60;99.90;;;;;;5051643;28;20312;-59
2024/02/11 11:24:42;;;;;;;5.43;2.50;;;13.50;99.90;;;;;;5051553;28;20217;-59
2024/02/11 11:27:10;;;;;;;4.37;2.40;;;13.50;99.90;;;;;;5051601;28;20205;-59
2024/02/11 11:29:38;;;;;;;5.50;3.37;;;13.60;99.90;;;;;;5051182;28;20229;-59
2024/02/11 11:32:09;;;;;;;4.30;2.80;;;13.50;99.90;;;;;;5051275;28;20599;-59
2024/02/11 11:34:36;;;;;;;6.03;2.40;;;13.30;99.90;;;;;;5051212;28;20663;-60
2024/02/11 11:37:10;;;;;;;5.53;2.53;;;13.20;99.90;;;;;;5051357;28;20445;-60
2024/02/11 11:39:37;;;;;;;5.67;2.83;;;13.20;99.90;;;;;;5051135;28;20217;-60
2024/02/11 11:42:05;;;;;;;8.33;4.87;;;13.10;99.90;;;;;;5054046;28;20597;-61
2024/02/11 11:44:32;;;;;;;4.37;2.70;;;13.10;99.90;;;;;;5053332;28;20661;-60
2024/02/11 11:47:00;;;;;;;4.13;2.20;;;13.10;99.90;;;;;;5055946;28;20212;-61
2024/02/11 11:49:27;;;;;;;2.47;2.03;;;13.10;99.90;;;;;;5055041;28;20706;-60
2024/02/11 11:51:57;;;;;;;5.30;3.03;;;13.20;99.90;;;;;;5055114;28;20201;-61
2024/02/11 11:54:26;;;;;;;3.37;2.07;;;13.50;99.90;;;;;;5046749;28;20695;-61
2024/02/11 11:56:56;;;;;;;4.33;2.30;;;13.80;99.90;;;;;;5055068;28;20675;-61
2024/02/11 11:59:22;;;;;;;2.93;1.70;;;14.10;99.90;;;;;;5054398;28;20226;-61
2024/02/11 12:01:49;;;;;;;4.07;1.90;;;14.30;99.90;;;;;;5055139;28;20209;-62
2024/02/11 12:04:17;;;;;;;4.03;1.87;;;14.60;99.90;;;;;;5054732;28;20221;-61
2024/02/11 12:06:44;;;;;;;3.87;1.70;;;14.70;99.90;;;;;;5054619;28;20721;-60
2024/02/11 12:09:14;;;;;;;9.20;4.70;;;14.80;99.90;;;;;;5054139;28;20611;-61
2024/02/11 12:11:40;;;;;;;3.77;1.80;;;14.80;99.90;;;;;;5054475;28;20675;-61
2024/02/11 12:14:08;;;;;;;2.47;1.67;;;14.90;99.90;;;;;;5054242;28;20205;-60
2024/02/11 12:16:36;;;;;;;3.37;1.70;;;15.10;99.90;;;;;;5054330;28;20206;-61
2024/02/11 12:19:04;;;;;;;3.07;1.50;;;15.10;99.90;;;;;;5054640;28;20256;-60
2024/02/11 12:21:32;;;;;;;3.53;1.53;;;15.00;99.90;;;;;;5054681;28;20206;-59
2024/02/11 12:24:01;;;;;;;2.67;1.70;;;15.10;99.90;;;;;;5054747;28;20208;-59
2024/02/11 12:26:28;;;;;;;2.63;1.50;;;15.10;99.90;;;;;;5054586;28;20237;-58
2024/02/11 12:28:54;;;;;;;2.00;1.37;;;15.10;99.90;;;;;;5054465;28;20225;-59
2024/02/11 12:31:23;;;;;;;2.63;1.70;;;15.00;99.90;;;;;;5054393;28;20201;-59
2024/02/11 12:33:51;;;;;;;2.73;1.93;;;14.90;99.90;;;;;;5054562;28;20687;-59
2024/02/11 12:36:21;;;;;;;5.90;4.00;;;15.00;99.90;;;;;;5054760;28;20206;-59
2024/02/11 12:38:51;;;;;;;3.67;1.10;;;14.90;99.90;;;;;;5054567;28;20869;-59
2024/02/11 12:41:20;;;;;;;3.03;1.20;;;14.80;99.90;;;;;;5054198;28;20616;-58
2024/02/11 12:43:48;;;;;;;3.77;2.10;;;14.60;99.90;;;;;;5054410;28;20213;-59
2024/02/11 12:46:15;;;;;;;2.00;1.13;;;14.60;99.90;;;;;;5054130;28;20668;-58